Terminal Aerodrome Forecast
Issued by NWS Paducah, KY

Home | Current Version | Previous Version | Text Only | Print | Product List | Glossary Off
Versions: 1 2 3 4 5 6 7 8 9 10 11 12 13 14 15 16 17 18

000
FTUS43 KPAH 281126
TAFEVV
TAF
KEVV 281126Z 2812/2912 VRB06KT P6SM SCT025 BKN150
      TEMPO 2812/2816 BKN025
     FM282000 27010G15KT P6SM VCSH BKN030
     FM290100 29007KT P6SM SCT035
     FM290700 VRB03KT P6SM SKC=

USA.gov is the U.S. government's official web portal to all federal, state and local government web resources and services.